createdAt,value
2022-09-21T00:01:29.715Z,9.30
2022-09-21T00:04:00.239Z,9.27
2022-09-21T00:06:29.659Z,9.27
2022-09-21T00:08:56.518Z,9.28
2022-09-21T00:11:28.086Z,9.27
2022-09-21T00:13:55.618Z,9.26
2022-09-21T00:16:23.931Z,9.26
2022-09-21T00:18:51.934Z,9.22
2022-09-21T00:21:19.669Z,9.21
2022-09-21T00:23:47.498Z,9.20
2022-09-21T00:26:17.944Z,9.20
2022-09-21T00:28:46.159Z,9.15
2022-09-21T00:31:14.838Z,9.13
2022-09-21T00:33:44.611Z,9.11
2022-09-21T00:36:13.710Z,9.08
2022-09-21T00:38:41.766Z,9.09
2022-09-21T00:41:10.869Z,9.06
2022-09-21T00:43:38.358Z,9.06
2022-09-21T00:46:10.612Z,9.05
2022-09-21T00:48:38.360Z,9.06
2022-09-21T00:51:08.017Z,9.06
2022-09-21T00:53:37.578Z,9.04
2022-09-21T00:56:05.442Z,9.04
2022-09-21T00:58:35.918Z,9.04
2022-09-21T01:01:02.511Z,9.05
2022-09-21T01:03:30.468Z,9.04
2022-09-21T01:05:58.486Z,9.04
2022-09-21T01:08:27.137Z,9.02
2022-09-21T01:11:13.598Z,8.99
2022-09-21T01:14:01.916Z,8.96
2022-09-21T01:16:49.612Z,8.93
2022-09-21T01:19:34.847Z,8.92
2022-09-21T01:22:07.696Z,8.88
2022-09-21T01:24:50.246Z,8.85
2022-09-21T01:27:36.645Z,8.84
2022-09-21T01:30:06.876Z,8.81
2022-09-21T01:32:37.956Z,8.81
2022-09-21T01:35:23.266Z,8.79
2022-09-21T01:38:02.314Z,8.76
2022-09-21T01:40:36.120Z,8.72
2022-09-21T01:43:06.028Z,8.71
2022-09-21T01:45:41.443Z,8.68
2022-09-21T01:48:09.298Z,8.65
2022-09-21T01:50:49.968Z,8.63
2022-09-21T01:53:23.098Z,8.60
2022-09-21T01:55:57.124Z,8.58
2022-09-21T01:58:42.343Z,8.56
2022-09-21T02:01:12.892Z,8.54
2022-09-21T02:03:44.234Z,8.51
2022-09-21T02:06:11.770Z,8.52
2022-09-21T02:08:39.636Z,8.53
2022-09-21T02:11:07.272Z,8.49
2022-09-21T02:13:37.204Z,8.49
2022-09-21T02:16:07.508Z,8.50
2022-09-21T02:18:56.937Z,8.47
2022-09-21T02:21:38.146Z,8.44
2022-09-21T02:24:21.944Z,8.47
2022-09-21T02:26:54.191Z,8.43
2022-09-21T02:29:49.185Z,8.43
2022-09-21T02:32:35.201Z,8.37
2022-09-21T02:35:20.809Z,8.33
2022-09-21T02:37:56.947Z,8.33
2022-09-21T02:40:36.987Z,8.33
2022-09-21T02:43:12.754Z,8.26
2022-09-21T02:45:48.163Z,8.22
2022-09-21T02:48:22.127Z,8.20
2022-09-21T02:50:55.034Z,8.16
2022-09-21T02:53:26.027Z,8.12
2022-09-21T02:55:56.577Z,8.08
2022-09-21T02:58:25.186Z,8.04
2022-09-21T03:00:54.982Z,7.99
2022-09-21T03:03:24.806Z,7.94
2022-09-21T03:05:54.006Z,7.94
2022-09-21T03:08:20.547Z,7.90
2022-09-21T03:10:49.161Z,7.89
2022-09-21T03:13:17.349Z,7.84
2022-09-21T03:15:46.323Z,7.85
2022-09-21T03:18:15.086Z,7.85
2022-09-21T03:20:46.229Z,7.83
2022-09-21T03:23:14.522Z,7.84
2022-09-21T03:25:46.167Z,7.82
2022-09-21T03:28:14.798Z,7.85
2022-09-21T03:30:42.714Z,7.82
2022-09-21T03:33:11.474Z,7.79
2022-09-21T03:35:39.495Z,7.78
2022-09-21T03:38:07.064Z,7.73
2022-09-21T03:40:34.897Z,7.73
2022-09-21T03:43:02.642Z,7.72
2022-09-21T03:45:29.182Z,7.68
2022-09-21T03:47:58.145Z,7.68
2022-09-21T03:50:28.264Z,7.67
2022-09-21T03:52:56.514Z,7.62
2022-09-21T03:55:23.339Z,7.57
2022-09-21T03:57:52.342Z,7.57
2022-09-21T04:00:20.343Z,7.54
2022-09-21T04:02:46.797Z,7.53
2022-09-21T04:05:15.444Z,7.54
2022-09-21T04:07:45.797Z,7.53
2022-09-21T04:10:15.762Z,7.52
2022-09-21T04:12:44.264Z,7.52
2022-09-21T04:15:14.449Z,7.53
2022-09-21T04:17:41.006Z,7.53
2022-09-21T04:20:09.474Z,7.51
2022-09-21T04:22:42.583Z,7.53
2022-09-21T04:25:11.076Z,7.54
2022-09-21T04:27:38.942Z,7.53
2022-09-21T04:30:07.206Z,7.56
2022-09-21T04:32:34.819Z,7.56
2022-09-21T04:35:02.698Z,7.57
2022-09-21T04:37:30.561Z,7.58
2022-09-21T04:39:59.395Z,7.61
2022-09-21T04:42:27.661Z,7.62
2022-09-21T04:44:55.909Z,7.63
2022-09-21T04:47:24.612Z,7.65
2022-09-21T04:49:52.642Z,7.62
2022-09-21T04:52:20.449Z,7.66
2022-09-21T04:54:48.071Z,7.69
2022-09-21T04:57:16.057Z,7.71
2022-09-21T04:59:44.055Z,7.69
2022-09-21T05:02:12.267Z,7.71
2022-09-21T05:04:43.417Z,7.76
2022-09-21T05:07:11.563Z,7.90
2022-09-21T05:10:00.050Z,7.99
2022-09-21T05:12:30.083Z,8.06
2022-09-21T05:14:56.631Z,8.06
2022-09-21T05:17:23.529Z,8.16
2022-09-21T05:19:52.247Z,8.14
2022-09-21T05:22:19.079Z,8.13
2022-09-21T05:24:46.620Z,8.22
2022-09-21T05:27:14.505Z,8.27
2022-09-21T05:29:42.188Z,8.34
2022-09-21T05:32:17.290Z,8.43
2022-09-21T05:35:03.670Z,8.49
2022-09-21T05:37:53.726Z,8.44
2022-09-21T05:40:22.294Z,8.64
2022-09-21T05:42:50.363Z,8.64
2022-09-21T05:45:18.871Z,8.75
2022-09-21T05:47:47.077Z,8.87
2022-09-21T05:50:37.204Z,8.86
2022-09-21T05:53:11.584Z,8.94
2022-09-21T05:56:05.630Z,9.04
2022-09-21T05:58:40.725Z,9.00
2022-09-21T06:01:19.184Z,9.02
2022-09-21T06:03:48.594Z,9.08
2022-09-21T06:06:15.323Z,9.27
2022-09-21T06:08:41.812Z,9.32
2022-09-21T06:11:08.362Z,9.37
2022-09-21T06:13:34.789Z,9.48
2022-09-21T06:16:04.997Z,9.53
2022-09-21T06:18:31.431Z,9.64
2022-09-21T06:20:57.840Z,9.54
2022-09-21T06:23:24.327Z,9.33
2022-09-21T06:25:55.927Z,9.26
2022-09-21T06:28:24.686Z,9.25
2022-09-21T06:30:52.180Z,9.33
2022-09-21T06:33:21.254Z,9.33
2022-09-21T06:35:54.619Z,9.38
2022-09-21T06:38:22.157Z,9.51
2022-09-21T06:40:48.693Z,9.53
2022-09-21T06:43:15.226Z,9.63
2022-09-21T06:45:42.140Z,9.56
2022-09-21T06:48:08.633Z,9.65
2022-09-21T06:50:35.072Z,9.72
2022-09-21T06:53:02.754Z,9.78
2022-09-21T06:55:29.883Z,9.78
2022-09-21T06:58:03.014Z,9.85
2022-09-21T07:00:30.430Z,9.66
2022-09-21T07:02:56.934Z,9.57
2022-09-21T07:05:23.388Z,9.44
2022-09-21T07:07:53.690Z,9.40
2022-09-21T07:10:20.938Z,9.69
2022-09-21T07:12:47.546Z,9.82
2022-09-21T07:15:15.501Z,10.00
2022-09-21T07:17:51.668Z,9.85
2022-09-21T07:20:18.828Z,9.88
2022-09-21T07:22:45.282Z,10.07
2022-09-21T07:25:11.799Z,9.89
2022-09-21T07:27:38.419Z,9.98
2022-09-21T07:30:06.184Z,10.35
2022-09-21T07:32:32.934Z,10.35
2022-09-21T07:34:59.347Z,10.24
2022-09-21T07:37:26.285Z,10.16
2022-09-21T07:39:53.303Z,10.03
2022-09-21T07:42:21.284Z,10.13
2022-09-21T07:44:47.751Z,10.09
2022-09-21T07:47:14.781Z,10.09
2022-09-21T07:49:41.830Z,10.05
2022-09-21T07:52:10.969Z,10.11
2022-09-21T07:54:37.862Z,10.16
2022-09-21T07:57:23.186Z,10.31
2022-09-21T07:59:49.658Z,10.38
2022-09-21T08:02:16.324Z,10.41
2022-09-21T08:04:42.979Z,10.38
2022-09-21T08:07:09.395Z,10.48
2022-09-21T08:09:35.866Z,10.47
2022-09-21T08:12:02.464Z,10.63
2022-09-21T08:14:29.392Z,10.61
2022-09-21T08:16:55.952Z,10.53
2022-09-21T08:19:26.028Z,10.56
2022-09-21T08:21:57.274Z,10.50
2022-09-21T08:24:26.737Z,10.48
2022-09-21T08:26:53.998Z,10.33
2022-09-21T08:29:23.513Z,10.46
2022-09-21T08:31:50.119Z,10.44
2022-09-21T08:34:16.670Z,10.64
2022-09-21T08:36:43.594Z,10.79
2022-09-21T08:39:10.293Z,10.65
2022-09-21T08:42:00.724Z,10.69
2022-09-21T08:44:33.295Z,10.63
2022-09-21T08:47:19.948Z,10.72
2022-09-21T08:49:50.794Z,10.77
2022-09-21T08:52:19.770Z,10.86
2022-09-21T08:54:59.022Z,11.07
2022-09-21T08:57:32.791Z,11.17
2022-09-21T09:00:00.435Z,11.07
2022-09-21T09:02:39.084Z,11.15
2022-09-21T09:05:24.960Z,11.20
2022-09-21T09:07:54.446Z,11.33
2022-09-21T09:10:42.329Z,11.26
2022-09-21T09:13:29.093Z,11.32
2022-09-21T09:16:08.001Z,11.32
2022-09-21T09:18:43.526Z,11.23
2022-09-21T09:21:16.874Z,11.12
2022-09-21T09:23:46.833Z,11.24
2022-09-21T09:26:20.589Z,11.51
2022-09-21T09:28:53.083Z,12.03
2022-09-21T09:31:23.434Z,12.39
2022-09-21T09:33:51.729Z,12.24
2022-09-21T09:36:30.081Z,12.36
2022-09-21T09:39:13.108Z,12.33
2022-09-21T09:41:39.531Z,12.33
2022-09-21T09:44:08.834Z,12.56
2022-09-21T09:46:45.393Z,12.33
2022-09-21T09:49:30.194Z,12.10
2022-09-21T09:51:56.812Z,12.44
2022-09-21T09:54:26.374Z,12.18
2022-09-21T09:56:55.203Z,12.73
2022-09-21T09:59:54.417Z,13.16
2022-09-21T10:02:21.962Z,12.88
2022-09-21T10:04:54.996Z,12.83
2022-09-21T10:07:33.122Z,12.69
2022-09-21T10:09:59.596Z,12.37
2022-09-21T10:12:27.547Z,12.49
2022-09-21T10:14:56.208Z,12.57
2022-09-21T10:17:24.613Z,12.67
2022-09-21T10:20:01.179Z,12.75
2022-09-21T10:22:28.556Z,12.86
2022-09-21T10:25:05.308Z,12.91
2022-09-21T10:27:42.806Z,13.15
2022-09-21T10:30:29.186Z,12.95
2022-09-21T10:32:56.868Z,13.44
2022-09-21T10:35:23.419Z,13.04
2022-09-21T10:38:08.251Z,12.99
2022-09-21T10:40:36.356Z,12.95
2022-09-21T10:43:02.991Z,13.11
2022-09-21T10:45:30.640Z,13.18
2022-09-21T10:47:57.098Z,13.27
2022-09-21T10:50:23.556Z,13.67
2022-09-21T10:52:51.440Z,13.36
2022-09-21T10:55:22.768Z,13.43
2022-09-21T10:57:50.376Z,13.27
2022-09-21T11:00:25.859Z,13.37
2022-09-21T11:02:52.604Z,13.23
2022-09-21T11:05:39.333Z,13.27
2022-09-21T11:08:09.748Z,12.94
2022-09-21T11:10:55.062Z,12.62
2022-09-21T11:13:24.650Z,12.49
2022-09-21T11:16:09.958Z,12.38
2022-09-21T11:18:45.797Z,12.32
2022-09-21T11:21:34.453Z,12.33
2022-09-21T11:24:00.864Z,12.15
2022-09-21T11:26:29.155Z,12.26
2022-09-21T11:29:15.831Z,12.18
2022-09-21T11:31:48.782Z,12.04
2022-09-21T11:34:21.133Z,12.00
2022-09-21T11:37:11.082Z,11.94
2022-09-21T11:39:46.556Z,11.82
2022-09-21T11:42:14.836Z,11.78
2022-09-21T11:44:53.067Z,11.93
2022-09-21T11:47:38.259Z,12.10
2022-09-21T11:50:32.167Z,12.22
2022-09-21T11:53:11.535Z,12.46
2022-09-21T11:56:03.992Z,12.56
2022-09-21T11:58:37.433Z,12.64
2022-09-21T12:01:09.116Z,12.68
2022-09-21T12:03:44.615Z,12.56
2022-09-21T12:06:16.244Z,12.46
2022-09-21T12:08:52.394Z,12.51
2022-09-21T12:11:21.517Z,12.57
2022-09-21T12:14:03.306Z,12.67
2022-09-21T12:16:38.852Z,12.81
2022-09-21T12:19:11.533Z,13.00
2022-09-21T12:21:41.396Z,13.00
2022-09-21T12:24:16.897Z,12.91
2022-09-21T12:26:46.111Z,13.16
2022-09-21T12:29:16.257Z,12.96
2022-09-21T12:32:03.392Z,12.91
2022-09-21T12:34:56.160Z,12.84
2022-09-21T12:37:31.782Z,12.86
2022-09-21T12:40:05.470Z,12.91
2022-09-21T12:42:34.763Z,12.87
2022-09-21T12:45:07.100Z,13.01
2022-09-21T12:47:36.275Z,13.23
2022-09-21T12:50:06.951Z,14.05
2022-09-21T12:52:34.528Z,15.02
2022-09-21T12:55:01.320Z,15.36
2022-09-21T12:58:04.794Z,16.10
2022-09-21T13:00:22.233Z,16.77
2022-09-21T13:02:55.965Z,17.05
2022-09-21T13:05:29.721Z,16.45
2022-09-21T13:07:59.178Z,16.25
2022-09-21T13:10:29.758Z,16.02
2022-09-21T13:13:00.069Z,15.99
2022-09-21T13:15:27.837Z,15.86
2022-09-21T13:17:59.381Z,15.72
2022-09-21T13:20:33.520Z,15.47
2022-09-21T13:23:02.133Z,14.95
2022-09-21T13:25:30.436Z,14.24
2022-09-21T13:28:15.196Z,13.46
2022-09-21T13:30:42.928Z,13.05
2022-09-21T13:33:23.147Z,12.93
2022-09-21T13:36:07.879Z,12.92
2022-09-21T13:38:54.326Z,12.74
2022-09-21T13:41:40.277Z,12.75
2022-09-21T13:44:33.218Z,12.59
2022-09-21T13:47:01.681Z,12.76
2022-09-21T13:49:31.624Z,13.47
2022-09-21T13:52:05.081Z,14.41
2022-09-21T13:54:31.974Z,15.43
2022-09-21T13:57:16.818Z,16.51
2022-09-21T13:59:44.985Z,17.52
2022-09-21T14:02:40.978Z,18.01
2022-09-21T14:05:19.508Z,18.31
2022-09-21T14:07:47.131Z,18.38
2022-09-21T14:10:18.512Z,18.46
2022-09-21T14:12:45.510Z,18.46
2022-09-21T14:15:19.434Z,18.69
2022-09-21T14:18:07.993Z,19.19
2022-09-21T14:20:40.198Z,19.79
2022-09-21T14:23:27.865Z,19.35
2022-09-21T14:25:54.601Z,19.21
2022-09-21T14:28:27.532Z,19.89
2022-09-21T14:30:59.414Z,19.85
2022-09-21T14:33:29.388Z,19.80
2022-09-21T14:35:56.416Z,19.55
2022-09-21T14:38:28.610Z,18.73
2022-09-21T14:41:00.369Z,18.84
2022-09-21T14:43:35.329Z,19.73
2022-09-21T14:46:17.253Z,19.32
2022-09-21T14:48:55.861Z,19.35
2022-09-21T14:51:41.351Z,18.91
2022-09-21T14:54:14.409Z,18.65
2022-09-21T14:56:56.674Z,18.56
2022-09-21T14:59:42.000Z,18.07
2022-09-21T15:02:11.306Z,17.79
2022-09-21T15:04:56.360Z,18.20
2022-09-21T15:08:00.515Z,17.57
2022-09-21T15:10:49.709Z,18.16
2022-09-21T15:13:20.353Z,18.41
2022-09-21T15:15:47.061Z,18.07
2022-09-21T15:18:20.197Z,18.85
2022-09-21T15:21:06.411Z,19.01
2022-09-21T15:23:34.889Z,19.84
2022-09-21T15:26:09.308Z,21.06
2022-09-21T15:29:05.018Z,20.85
2022-09-21T15:31:25.178Z,21.58
2022-09-21T15:33:52.908Z,21.52
2022-09-21T15:36:23.479Z,21.33
2022-09-21T15:38:50.826Z,21.66
2022-09-21T15:41:47.618Z,21.80
2022-09-21T15:44:17.270Z,20.86
2022-09-21T15:46:46.793Z,20.62
2022-09-21T15:49:15.401Z,20.70
2022-09-21T15:51:48.146Z,21.30
2022-09-21T15:54:52.185Z,20.07
2022-09-21T15:57:36.390Z,20.41
2022-09-21T16:00:31.268Z,20.59
2022-09-21T16:03:04.434Z,20.14
2022-09-21T16:05:43.396Z,19.71
2022-09-21T16:08:18.786Z,18.92
2022-09-21T16:10:45.250Z,16.96
2022-09-21T16:13:41.958Z,16.17
2022-09-21T16:16:12.844Z,15.62
2022-09-21T16:18:54.537Z,15.17
2022-09-21T16:21:23.717Z,14.50
2022-09-21T16:23:52.123Z,14.11
2022-09-21T16:26:26.943Z,13.84
2022-09-21T16:28:57.946Z,13.48
2022-09-21T16:31:32.273Z,13.34
2022-09-21T16:34:05.465Z,13.11
2022-09-21T16:36:37.517Z,12.98
2022-09-21T16:39:12.793Z,12.83
2022-09-21T16:41:44.311Z,12.69
2022-09-21T16:44:13.362Z,12.62
2022-09-21T16:46:44.034Z,12.49
2022-09-21T16:49:15.353Z,12.39
2022-09-21T16:51:41.831Z,12.29
2022-09-21T16:54:08.570Z,12.25
2022-09-21T16:56:36.163Z,12.25
2022-09-21T16:59:06.060Z,12.17
2022-09-21T17:01:32.641Z,12.08
2022-09-21T17:03:59.118Z,12.02
2022-09-21T17:06:25.586Z,11.97
2022-09-21T17:08:52.000Z,11.94
2022-09-21T17:11:22.192Z,11.93
2022-09-21T17:13:49.224Z,11.85
2022-09-21T17:16:19.460Z,11.81
2022-09-21T17:18:46.882Z,11.76
2022-09-21T17:21:13.890Z,11.76
2022-09-21T17:23:41.464Z,11.74
2022-09-21T17:26:17.819Z,11.69
2022-09-21T17:28:44.494Z,11.66
2022-09-21T17:31:16.479Z,11.61
2022-09-21T17:33:43.375Z,11.55
2022-09-21T17:36:14.420Z,11.50
2022-09-21T17:38:42.414Z,11.44
2022-09-21T17:41:18.261Z,11.40
2022-09-21T17:43:50.166Z,11.38
2022-09-21T17:46:22.526Z,11.35
2022-09-21T17:48:49.185Z,11.33
2022-09-21T17:51:35.728Z,11.29
2022-09-21T17:54:02.288Z,11.25
2022-09-21T17:56:28.751Z,11.22
2022-09-21T17:58:59.424Z,11.19
2022-09-21T18:01:29.151Z,11.17
2022-09-21T18:03:55.874Z,11.16
2022-09-21T18:06:22.949Z,11.15
2022-09-21T18:08:50.610Z,11.14
2022-09-21T18:11:36.342Z,11.13
2022-09-21T18:14:22.371Z,11.10
2022-09-21T18:17:15.710Z,11.09
2022-09-21T18:19:48.329Z,11.07
2022-09-21T18:22:33.604Z,11.05
2022-09-21T18:25:00.754Z,11.03
2022-09-21T18:27:27.365Z,11.06
2022-09-21T18:29:53.948Z,11.07
2022-09-21T18:32:26.404Z,11.06
2022-09-21T18:35:11.582Z,11.09
2022-09-21T18:37:48.587Z,11.09
2022-09-21T18:40:30.591Z,11.09
2022-09-21T18:42:59.003Z,11.04
2022-09-21T18:45:31.895Z,11.00
2022-09-21T18:48:07.339Z,10.95
2022-09-21T18:50:37.320Z,10.93
2022-09-21T18:53:03.819Z,10.87
2022-09-21T18:55:33.198Z,10.82
2022-09-21T18:58:00.567Z,10.79
2022-09-21T19:00:31.718Z,10.77
2022-09-21T19:03:18.780Z,10.71
2022-09-21T19:05:53.007Z,10.66
2022-09-21T19:08:21.396Z,10.60
2022-09-21T19:10:53.277Z,10.51
2022-09-21T19:13:19.745Z,10.48
2022-09-21T19:16:00.939Z,10.41
2022-09-21T19:18:43.341Z,10.31
2022-09-21T19:21:19.196Z,10.25
2022-09-21T19:23:51.907Z,10.10
2022-09-21T19:26:23.080Z,10.05
2022-09-21T19:28:59.089Z,9.96
2022-09-21T19:31:25.726Z,9.85
2022-09-21T19:33:52.496Z,9.83
2022-09-21T19:36:19.353Z,9.78
2022-09-21T19:38:46.016Z,9.65
2022-09-21T19:41:24.747Z,9.59
2022-09-21T19:43:59.104Z,9.54
2022-09-21T19:46:52.060Z,9.49
2022-09-21T19:49:19.933Z,9.47
2022-09-21T19:51:53.608Z,9.42
2022-09-21T19:54:43.451Z,9.39
2022-09-21T19:57:38.559Z,9.36
2022-09-21T20:00:07.622Z,9.32
2022-09-21T20:02:45.630Z,9.33
2022-09-21T20:05:20.138Z,9.30
2022-09-21T20:07:58.289Z,9.29
2022-09-21T20:10:36.448Z,9.26
2022-09-21T20:13:09.382Z,9.25
2022-09-21T20:15:48.247Z,9.22
2022-09-21T20:18:29.599Z,9.23
2022-09-21T20:20:57.421Z,9.25
2022-09-21T20:23:24.317Z,9.23
2022-09-21T20:26:03.479Z,9.22
2022-09-21T20:28:31.321Z,9.17
2022-09-21T20:30:58.083Z,9.16
2022-09-21T20:33:24.833Z,9.16
2022-09-21T20:35:57.916Z,9.18
2022-09-21T20:38:24.527Z,9.16
2022-09-21T20:40:52.273Z,9.17
2022-09-21T20:43:19.692Z,9.14
2022-09-21T20:45:49.504Z,9.15
2022-09-21T20:48:16.225Z,9.13
2022-09-21T20:50:44.546Z,9.10
2022-09-21T20:53:11.020Z,9.06
2022-09-21T20:55:37.841Z,9.03
2022-09-21T20:58:04.668Z,9.04
2022-09-21T21:00:31.594Z,9.04
2022-09-21T21:02:59.728Z,9.02
2022-09-21T21:05:29.032Z,9.01
2022-09-21T21:07:56.031Z,9.01
2022-09-21T21:10:23.918Z,8.99
2022-09-21T21:12:51.497Z,9.04
2022-09-21T21:15:18.578Z,9.05
2022-09-21T21:17:47.104Z,9.04
2022-09-21T21:20:19.048Z,9.05
2022-09-21T21:22:48.986Z,9.05
2022-09-21T21:25:16.768Z,9.05
2022-09-21T21:27:44.322Z,9.04
2022-09-21T21:30:11.371Z,9.06
2022-09-21T21:32:39.001Z,9.06
2022-09-21T21:35:07.040Z,9.04
2022-09-21T21:37:34.613Z,9.03
2022-09-21T21:40:02.402Z,9.00
2022-09-21T21:42:30.270Z,8.98
2022-09-21T21:44:58.068Z,8.98
2022-09-21T21:47:39.181Z,8.96
2022-09-21T21:50:06.672Z,8.93
2022-09-21T21:52:34.330Z,8.91
2022-09-21T21:55:02.568Z,8.93
2022-09-21T21:57:30.338Z,8.88
2022-09-21T21:59:56.771Z,8.84
2022-09-21T22:02:24.681Z,8.80
2022-09-21T22:04:52.760Z,8.76
2022-09-21T22:07:19.246Z,8.73
2022-09-21T22:09:47.634Z,8.70
2022-09-21T22:12:15.723Z,8.69
2022-09-21T22:14:42.341Z,8.67
2022-09-21T22:17:09.312Z,8.64
2022-09-21T22:19:37.120Z,8.63
2022-09-21T22:22:04.131Z,8.61
2022-09-21T22:24:31.754Z,8.59
2022-09-21T22:26:59.620Z,8.59
2022-09-21T22:29:27.424Z,8.59
2022-09-21T22:31:55.611Z,8.58
2022-09-21T22:34:22.342Z,8.60
2022-09-21T22:36:48.826Z,8.58
2022-09-21T22:39:16.595Z,8.55
2022-09-21T22:41:44.316Z,8.54
2022-09-21T22:44:12.162Z,8.54
2022-09-21T22:46:40.274Z,8.51
2022-09-21T22:49:08.403Z,8.49
2022-09-21T22:51:37.906Z,8.45
2022-09-21T22:54:06.166Z,8.45
2022-09-21T22:56:34.364Z,8.46
2022-09-21T22:59:03.588Z,8.44
2022-09-21T23:01:40.276Z,8.44
2022-09-21T23:04:09.302Z,8.44
2022-09-21T23:06:38.200Z,8.45
2022-09-21T23:09:07.702Z,8.45
2022-09-21T23:11:36.854Z,8.44
2022-09-21T23:14:03.832Z,8.43
2022-09-21T23:16:32.295Z,8.45
2022-09-21T23:19:00.604Z,8.43
2022-09-21T23:21:29.530Z,8.44
2022-09-21T23:23:59.859Z,8.44
2022-09-21T23:26:28.635Z,8.47
2022-09-21T23:28:58.039Z,8.47
2022-09-21T23:31:26.742Z,8.47
2022-09-21T23:33:55.596Z,8.47
2022-09-21T23:36:25.014Z,8.50
2022-09-21T23:38:53.146Z,8.52
2022-09-21T23:41:27.030Z,8.53
2022-09-21T23:43:55.529Z,8.53
2022-09-21T23:46:24.723Z,8.52
2022-09-21T23:48:52.775Z,8.55
2022-09-21T23:51:20.830Z,8.55
2022-09-21T23:53:47.677Z,8.56
2022-09-21T23:56:16.872Z,8.56
2022-09-21T23:58:44.527Z,8.56
